• Join FlightAware (Why Join?)
  • Login
  • US Flag 
05:06PM EDT


 

Airport Tracker/Info


-or-


 

Live Flight TrackerFlight Track Log ✈ RPA3228 ✈ 09-Sep-2013 ✈ KDCA - KBUF

Flight Track Log - Related Links

Times and Time Zones

All times are in EDT time to prevent confusion due to time zone crossing. See the RPA3228 flight status page for this flight to view local times or setup timezone preferences in your user account.

Time Position Orientation Groundspeed Altitude Reporting Facility
EDT Latitude Longitude Course Direction KTS MPH feet Rate Location/Type
10:31AM 38.8667 -77.0500 331° Northwest 158 182 1,400  Level Potomac TRACON
10:32AM 38.9167 -77.1000 322° Northwest 227 261 3,700 2,580 Climbing Potomac TRACON
10:33AM 39.1292 -77.1459 337° Northwest  Level Estimated
10:33AM 38.9858 -77.2178 307° West 262 302 8,700  Level Washington Center
10:34AM 39.2149 -77.2033 333° Northwest  Level FlightAware Approximate
10:34AM 39.0117 -77.3119 289° West 267 307 11,700  Level Washington Center
10:35AM 39.3074 -77.2391 339° North  Level Estimated
10:35AM 39.0478 -77.4092 296° West 287 330 14,400  Level Washington Center
10:36AM 39.3921 -77.2993 331° Northwest  Level FlightAware Approximate
10:36AM 39.1369 -77.4328 348° North 281 323 16,600  Level Washington Center
10:37AM 39.2347 -77.4378 358° North 311 358 18,000 2,220 Climbing Washington Center
10:40AM 39.4614 -77.4483 358° North 364 419 23,500 1,920 Climbing New York Center
10:41AM 39.5633 -77.4528 358° North 369 425 24,000 240 Climbing New York Center
10:42AM 39.6694 -77.4600 357° North 369 425 24,000  Level New York Center
10:43AM 39.7719 -77.4536 North 369 425 24,000  Level New York Center
10:44AM 39.8764 -77.4528 360° North 369 425 24,000  Level New York Center
10:45AM 39.9806 -77.4544 359° North 369 425 24,000  Level New York Center
10:46AM 40.0806 -77.4914 344° North 364 419 24,000  Level New York Center
10:47AM 40.1806 -77.5281 344° North 370 426 24,000  Level New York Center
10:49AM 40.3911 -77.6117 343° North 383 441 24,000  Level Cleveland Center
10:50AM 40.4881 -77.6508 343° North 372 428 24,000  Level Cleveland Center
10:51AM 40.5892 -77.6903 343° North 372 428 24,000  Level Cleveland Center
10:52AM 40.6881 -77.7297 343° North 367 422 24,000  Level Cleveland Center
10:53AM 40.7892 -77.7692 344° North 367 422 24,000  Level Cleveland Center
10:54AM 40.8861 -77.8092 343° North 367 422 24,000  Level Cleveland Center
10:55AM 40.9872 -77.8489 343° North 367 422 24,000  Level Cleveland Center
10:56AM 41.0839 -77.8861 344° North 367 422 24,000  Level Cleveland Center
10:57AM 41.1850 -77.9289 342° North 367 422 24,000  Level Cleveland Center
10:58AM 41.2839 -77.9664 344° North 367 422 24,000  Level Cleveland Center
10:59AM 41.3786 -78.0039 343° North 367 422 24,000 -300 Level Cleveland Center
11:00AM 41.4669 -78.0419 342° North 367 422 23,500 -840 Descending Cleveland Center
11:01AM 41.5636 -78.0800 344° North 367 422 22,400 -1,200 Descending Cleveland Center
11:02AM 41.6606 -78.1178 344° North 367 422 21,200 -1,200 Descending Cleveland Center
11:03AM 41.7531 -78.1589 342° North 367 422 20,100 -1,140 Descending Cleveland Center
11:04AM 41.8478 -78.1969 343° North 362 417 19,000 -1,140 Descending Cleveland Center
11:05AM 41.9381 -78.2356 342° North 357 411 17,900 -1,020 Descending Cleveland Center
11:06AM 42.0328 -78.2739 343° North 351 404 17,000 -1,020 Descending Cleveland Center
11:07AM 42.1211 -78.3100 343° North 345 397 15,900 -1,080 Descending Cleveland Center
11:08AM 42.2050 -78.3406 345° North 345 397 14,900 -1,080 Descending Cleveland Center
11:09AM 42.2994 -78.3822 342° North 345 397 13,800 -1,080 Descending Cleveland Center
11:10AM 42.3878 -78.4186 343° North 340 391 12,800 -1,080 Descending Cleveland Center
11:11AM 42.4697 -78.4553 342° North 327 376 11,700 -1,080 Descending Cleveland Center
11:12AM 42.5556 -78.4775 349° North 313 360 10,700 -1,320 Descending Cleveland Center
11:13AM 42.6372 -78.4919 353° North 303 349 9,100 -1,800 Descending Cleveland Center
11:14AM 42.7292 -78.5086 352° North 297 342 7,200 -1,560 Descending Cleveland Center
11:15AM 42.7983 -78.5233 351° North 291 335 6,000 -1,320 Descending Cleveland Center
11:16AM 42.8736 -78.5433 349° North 278 320 4,600 -1,080 Descending Cleveland Center
11:17AM 42.9531 -78.5608 351° North 265 305 3,900 -840 Descending Cleveland Center
11:18AM 42.9936 -78.6106 318° Northwest 198 228 3,000 -960 Descending Cleveland Center
11:19AM 42.9833 -78.6667 256° West 151 174 2,100 -960 Descending Buffalo TRACON